Time;durP1;ratioP1;P1;durP2;ratioP2;P2;SDS_P1;SDS_P2;PMS_P1;PMS_P2;Temp;Humidity;BMP_temperature;BMP_pressure;BME280_temperature;BME280_humidity;BME280_pressure;Samples;Min_cycle;Max_cycle;Signal;HPM_P1;HPM_P2
2023/06/27 00:00:21;;;;;;;0.00;0.00;;;13.60;99.90;;;;;;4960246;28;20121;-68
2023/06/27 00:02:47;;;;;;;0.00;0.00;;;13.60;99.90;;;;;;4960892;28;20440;-69
2023/06/27 00:05:13;;;;;;;0.00;0.00;;;13.50;99.90;;;;;;4961461;28;20360;-68
2023/06/27 00:07:41;;;;;;;0.00;0.00;;;13.50;99.90;;;;;;4968617;28;20035;-69
2023/06/27 00:10:10;;;;;;;0.00;0.00;;;13.50;99.90;;;;;;4955633;28;20130;-66
2023/06/27 00:12:37;;;;;;;0.00;0.00;;;13.40;99.90;;;;;;4962556;28;20039;-69
2023/06/27 00:15:07;;;;;;;0.00;0.00;;;13.40;99.90;;;;;;4965893;28;20496;-69
2023/06/27 00:17:34;;;;;;;0.00;0.00;;;13.40;99.90;;;;;;4960635;28;20054;-68
2023/06/27 00:20:01;;;;;;;0.00;0.00;;;13.40;99.90;;;;;;4958871;28;20069;-68
2023/06/27 00:22:27;;;;;;;0.00;0.00;;;13.30;99.90;;;;;;4967295;28;20046;-69
2023/06/27 00:24:54;;;;;;;0.00;0.00;;;13.30;99.90;;;;;;4975825;28;20523;-69
2023/06/27 00:27:20;;;;;;;0.00;0.00;;;13.30;99.90;;;;;;4962698;28;20055;-69
2023/06/27 00:29:46;;;;;;;0.00;0.00;;;13.30;99.90;;;;;;4958918;28;20070;-68
2023/06/27 00:32:12;;;;;;;0.10;0.00;;;13.30;99.90;;;;;;4960708;28;20510;-69
2023/06/27 00:34:37;;;;;;;0.00;0.00;;;13.20;99.90;;;;;;4965645;28;20047;-69
2023/06/27 00:37:03;;;;;;;0.00;0.00;;;13.20;99.90;;;;;;4955933;28;20566;-68
2023/06/27 00:39:29;;;;;;;0.00;0.00;;;13.20;99.90;;;;;;4968240;28;20043;-69
2023/06/27 00:41:55;;;;;;;0.00;0.00;;;13.20;99.90;;;;;;4960196;28;20066;-69
2023/06/27 00:44:20;;;;;;;0.13;0.00;;;13.10;99.90;;;;;;4964496;28;20442;-67
2023/06/27 00:46:51;;;;;;;0.00;0.00;;;13.10;99.90;;;;;;4966220;28;20089;-67
2023/06/27 00:49:18;;;;;;;0.00;0.00;;;13.10;99.90;;;;;;4960611;28;20042;-68
2023/06/27 00:51:46;;;;;;;0.00;0.00;;;13.10;99.90;;;;;;4961874;28;20044;-68
2023/06/27 00:54:14;;;;;;;0.00;0.00;;;13.00;99.90;;;;;;4962391;28;20083;-68
2023/06/27 00:56:40;;;;;;;0.00;0.00;;;13.00;99.90;;;;;;4953942;28;20047;-68
2023/06/27 00:59:06;;;;;;;0.00;0.00;;;12.90;99.90;;;;;;4962005;28;20054;-68
2023/06/27 01:01:32;;;;;;;0.00;0.00;;;12.90;99.90;;;;;;4963181;28;20057;-70
2023/06/27 01:03:58;;;;;;;0.00;0.00;;;12.90;99.90;;;;;;4964721;28;20053;-70
2023/06/27 01:07:02;;;;;;;0.00;0.00;;;12.90;99.90;;;;;;4959407;28;20393;-70
2023/06/27 01:09:37;;;;;;;0.05;0.00;;;12.90;99.90;;;;;;4963199;28;20089;-70
2023/06/27 01:12:09;;;;;;;0.00;0.00;;;12.80;99.90;;;;;;4967177;28;20047;-70
2023/06/27 01:14:36;;;;;;;0.00;0.00;;;12.80;99.90;;;;;;4958238;28;20403;-70
2023/06/27 01:17:03;;;;;;;0.00;0.00;;;12.80;99.90;;;;;;4954646;28;20945;-70
2023/06/27 01:19:31;;;;;;;0.00;0.00;;;12.70;99.90;;;;;;4965011;28;20073;-70
2023/06/27 01:22:05;;;;;;;0.00;0.00;;;12.70;99.90;;;;;;4965419;28;20039;-70
2023/06/27 01:24:31;;;;;;;0.00;0.00;;;12.70;99.90;;;;;;4962511;28;20406;-70
2023/06/27 01:26:58;;;;;;;0.00;0.00;;;12.70;99.90;;;;;;4975109;28;20066;-71
2023/06/27 01:29:24;;;;;;;0.00;0.00;;;12.60;99.90;;;;;;4964829;28;20046;-71
2023/06/27 01:32:04;;;;;;;0.00;0.00;;;12.60;99.90;;;;;;4964568;28;20607;-69
2023/06/27 01:34:41;;;;;;;0.00;0.00;;;12.60;99.90;;;;;;4954588;28;20039;-70
2023/06/27 01:37:26;;;;;;;0.00;0.00;;;12.60;99.90;;;;;;4972617;28;20051;-70
2023/06/27 01:40:21;;;;;;;0.00;0.00;;;12.50;99.90;;;;;;4963909;28;20153;-69
2023/06/27 01:42:53;;;;;;;0.20;0.10;;;12.50;99.90;;;;;;4964089;28;20094;-70
2023/06/27 01:45:19;;;;;;;0.00;0.00;;;12.50;99.90;;;;;;4957852;28;20557;-69
2023/06/27 01:47:46;;;;;;;0.00;0.00;;;12.50;99.90;;;;;;4960010;28;20058;-70
2023/06/27 01:50:12;;;;;;;0.00;0.00;;;12.40;99.90;;;;;;4964624;28;20349;-70
2023/06/27 01:52:38;;;;;;;0.00;0.00;;;12.40;99.90;;;;;;4957908;28;20043;-70
2023/06/27 01:55:05;;;;;;;0.00;0.00;;;12.40;99.90;;;;;;4959398;28;20043;-70
2023/06/27 01:57:31;;;;;;;0.00;0.00;;;12.40;99.90;;;;;;4960254;28;20051;-70
2023/06/27 01:59:56;;;;;;;0.00;0.00;;;12.40;99.90;;;;;;4959660;28;20073;-70
2023/06/27 02:02:22;;;;;;;0.00;0.00;;;12.40;99.90;;;;;;4963542;28;20051;-70
2023/06/27 02:04:48;;;;;;;0.00;0.00;;;12.40;99.90;;;;;;4945737;28;20050;-70
2023/06/27 02:07:13;;;;;;;0.00;0.00;;;12.30;99.90;;;;;;4958805;28;20044;-70
2023/06/27 02:09:39;;;;;;;0.00;0.00;;;12.30;99.90;;;;;;4959633;28;20479;-70
2023/06/27 02:12:05;;;;;;;0.00;0.00;;;12.30;99.90;;;;;;4956726;28;20031;-70
2023/06/27 02:14:31;;;;;;;0.00;0.00;;;12.30;99.90;;;;;;4961756;28;20050;-70
2023/06/27 02:16:57;;;;;;;0.00;0.00;;;12.20;99.90;;;;;;4963244;28;20043;-69
2023/06/27 02:19:23;;;;;;;0.00;0.00;;;12.20;99.90;;;;;;4981054;28;20507;-70
2023/06/27 02:21:49;;;;;;;0.00;0.00;;;12.20;99.90;;;;;;4960052;28;20127;-69
2023/06/27 02:24:16;;;;;;;0.00;0.00;;;12.20;99.90;;;;;;4961381;28;20035;-70
2023/06/27 02:26:43;;;;;;;0.00;0.00;;;12.20;99.90;;;;;;4964506;28;20097;-69
2023/06/27 02:29:09;;;;;;;0.00;0.00;;;12.20;99.90;;;;;;4980434;28;20125;-70
2023/06/27 02:31:35;;;;;;;0.13;0.00;;;12.20;99.90;;;;;;4968849;28;20498;-70
2023/06/27 02:34:01;;;;;;;0.00;0.00;;;12.20;99.90;;;;;;4984146;28;20062;-70
2023/06/27 02:36:27;;;;;;;0.00;0.00;;;12.10;99.90;;;;;;4984517;28;20478;-69
2023/06/27 02:38:54;;;;;;;0.00;0.00;;;12.10;99.90;;;;;;4965709;28;20047;-70
2023/06/27 02:41:23;;;;;;;0.00;0.00;;;12.10;99.90;;;;;;4959935;28;20066;-70
2023/06/27 02:43:49;;;;;;;0.00;0.00;;;12.10;99.90;;;;;;4953032;28;20046;-70
2023/06/27 02:46:15;;;;;;;0.00;0.00;;;12.10;99.90;;;;;;4967830;28;20495;-70
2023/06/27 02:48:40;;;;;;;0.00;0.00;;;12.10;99.90;;;;;;4965466;28;20107;-70
2023/06/27 02:51:06;;;;;;;0.00;0.00;;;12.10;99.90;;;;;;4980258;28;20043;-70
2023/06/27 02:53:32;;;;;;;0.00;0.00;;;12.00;99.90;;;;;;4958926;28;20073;-69
2023/06/27 02:56:02;;;;;;;0.00;0.00;;;12.00;99.90;;;;;;4983527;28;20092;-70
2023/06/27 02:58:31;;;;;;;0.00;0.00;;;12.00;99.90;;;;;;4970604;28;20042;-69
2023/06/27 03:01:03;;;;;;;0.00;0.00;;;12.00;99.90;;;;;;4957709;28;20151;-70
2023/06/27 03:03:29;;;;;;;0.00;0.00;;;12.00;99.90;;;;;;4951275;28;20057;-70
2023/06/27 03:05:55;;;;;;;0.03;0.00;;;12.00;99.90;;;;;;4984797;28;20645;-70
2023/06/27 03:08:21;;;;;;;0.00;0.00;;;12.00;99.90;;;;;;4971005;28;20039;-70
2023/06/27 03:10:46;;;;;;;0.00;0.00;;;12.00;99.90;;;;;;4977368;28;20343;-69
2023/06/27 03:13:12;;;;;;;0.00;0.00;;;12.00;99.90;;;;;;4968834;28;20039;-70
2023/06/27 03:15:38;;;;;;;0.00;0.00;;;12.00;99.90;;;;;;4985775;28;20101;-70
2023/06/27 03:18:03;;;;;;;0.00;0.00;;;12.10;99.90;;;;;;4968249;28;20054;-69
2023/06/27 03:20:29;;;;;;;0.00;0.00;;;12.10;99.90;;;;;;4980410;28;20060;-70
2023/06/27 03:22:55;;;;;;;0.00;0.00;;;12.00;99.90;;;;;;4981604;28;20042;-69
2023/06/27 03:25:20;;;;;;;0.00;0.00;;;12.10;99.90;;;;;;4982523;28;20535;-69
2023/06/27 03:27:46;;;;;;;0.00;0.00;;;12.10;99.90;;;;;;4990294;28;20042;-69
2023/06/27 03:30:13;;;;;;;0.00;0.00;;;12.10;99.90;;;;;;4964220;28;20503;-69
2023/06/27 03:32:38;;;;;;;0.38;0.00;;;12.10;99.90;;;;;;4968930;28;20043;-69
2023/06/27 03:35:05;;;;;;;0.00;0.00;;;12.20;99.90;;;;;;4986119;28;20046;-69
2023/06/27 03:37:31;;;;;;;0.00;0.00;;;12.20;99.90;;;;;;4978570;28;20057;-70
2023/06/27 03:39:57;;;;;;;0.00;0.00;;;12.20;99.90;;;;;;4981039;28;20051;-70
2023/06/27 03:42:23;;;;;;;0.00;0.00;;;12.30;99.90;;;;;;4966465;28;20411;-70
2023/06/27 03:44:49;;;;;;;0.00;0.00;;;12.30;99.90;;;;;;4986105;28;20072;-70
2023/06/27 03:47:14;;;;;;;0.00;0.00;;;12.30;99.90;;;;;;4985060;28;20030;-70
2023/06/27 03:49:40;;;;;;;0.17;0.08;;;12.30;99.90;;;;;;4976336;28;20042;-70
2023/06/27 03:52:06;;;;;;;0.00;0.00;;;12.40;99.90;;;;;;4969267;28;20058;-70
2023/06/27 03:54:32;;;;;;;0.00;0.00;;;12.40;99.90;;;;;;4966874;28;20042;-70
2023/06/27 03:56:57;;;;;;;0.00;0.00;;;12.50;99.90;;;;;;4974210;28;20050;-70
2023/06/27 03:59:23;;;;;;;0.00;0.00;;;12.60;99.90;;;;;;4979026;28;20039;-70
2023/06/27 04:01:49;;;;;;;0.00;0.00;;;12.70;99.90;;;;;;4964991;28;20069;-70
2023/06/27 04:04:15;;;;;;;0.00;0.00;;;12.70;99.90;;;;;;4965797;28;20125;-70
2023/06/27 04:06:40;;;;;;;0.00;0.00;;;12.70;99.90;;;;;;4962316;28;20507;-70
2023/06/27 04:09:06;;;;;;;0.00;0.00;;;12.80;99.90;;;;;;4960509;28;20038;-70
2023/06/27 04:11:32;;;;;;;0.00;0.00;;;12.80;99.90;;;;;;4982651;28;20078;-70
2023/06/27 04:14:00;;;;;;;0.00;0.00;;;12.90;99.90;;;;;;4983969;28;20126;-70
2023/06/27 04:16:27;;;;;;;0.00;0.00;;;12.90;99.90;;;;;;4988149;28;20121;-70
2023/06/27 04:18:53;;;;;;;0.00;0.00;;;13.00;99.90;;;;;;4960581;28;20042;-70
2023/06/27 04:21:20;;;;;;;0.05;0.00;;;13.10;99.90;;;;;;4981188;28;20516;-70
2023/06/27 04:23:46;;;;;;;0.00;0.00;;;13.20;99.90;;;;;;4962578;28;20039;-70
2023/06/27 04:26:15;;;;;;;0.00;0.00;;;13.30;99.90;;;;;;4972496;28;20045;-70
2023/06/27 04:28:44;;;;;;;0.00;0.00;;;13.40;99.90;;;;;;4979101;28;20415;-70
2023/06/27 04:31:10;;;;;;;0.05;0.00;;;13.60;99.90;;;;;;4962993;28;20046;-70
2023/06/27 04:33:39;;;;;;;0.00;0.00;;;13.70;99.90;;;;;;4969512;28;20047;-70
2023/06/27 04:36:09;;;;;;;0.00;0.00;;;13.80;99.90;;;;;;4982359;28;20043;-70
2023/06/27 04:38:37;;;;;;;0.10;0.00;;;13.90;99.90;;;;;;4979171;28;20049;-70
2023/06/27 04:41:11;;;;;;;0.00;0.00;;;14.00;99.90;;;;;;4982897;28;20046;-70
2023/06/27 04:43:39;;;;;;;0.00;0.00;;;14.10;99.90;;;;;;4968086;28;20399;-71
2023/06/27 04:46:05;;;;;;;0.00;0.00;;;14.30;99.90;;;;;;4979365;28;20438;-71
2023/06/27 04:48:31;;;;;;;0.00;0.00;;;14.40;99.90;;;;;;4984916;28;20482;-71
2023/06/27 04:50:57;;;;;;;0.10;0.00;;;14.50;99.90;;;;;;4984964;28;20218;-71
2023/06/27 04:53:25;;;;;;;0.00;0.00;;;14.60;99.90;;;;;;4985481;28;20380;-71
2023/06/27 04:55:53;;;;;;;0.00;0.00;;;14.80;99.90;;;;;;4967943;28;20125;-71
2023/06/27 04:58:19;;;;;;;0.00;0.00;;;15.00;99.90;;;;;;4965604;28;20046;-71
2023/06/27 05:00:51;;;;;;;0.15;0.00;;;15.20;99.90;;;;;;4966812;28;20046;-72
2023/06/27 05:03:17;;;;;;;0.00;0.00;;;15.50;99.90;;;;;;4959098;28;20137;-71
2023/06/27 05:05:44;;;;;;;0.00;0.00;;;16.20;99.90;;;;;;4985513;28;20121;-71
2023/06/27 05:08:10;;;;;;;0.00;0.00;;;16.90;99.90;;;;;;4979501;28;20397;-71
2023/06/27 05:10:36;;;;;;;0.03;0.00;;;17.50;99.90;;;;;;4984031;28;20118;-71
2023/06/27 05:13:02;;;;;;;0.00;0.00;;;17.80;99.90;;;;;;4980755;28;20110;-72
2023/06/27 05:15:28;;;;;;;0.00;0.00;;;17.70;99.90;;;;;;4963198;28;20042;-72
2023/06/27 05:18:14;;;;;;;0.00;0.00;;;17.60;99.90;;;;;;4964254;28;20050;-72
2023/06/27 05:20:41;;;;;;;0.00;0.00;;;17.60;99.90;;;;;;4980566;28;20053;-71
2023/06/27 05:23:07;;;;;;;0.00;0.00;;;17.40;99.90;;;;;;4976784;28;20042;-72
2023/06/27 05:25:33;;;;;;;0.00;0.00;;;17.30;99.90;;;;;;4945778;28;20061;-72
2023/06/27 05:28:00;;;;;;;0.10;0.03;;;17.30;99.90;;;;;;4964174;28;20478;-72
2023/06/27 05:30:26;;;;;;;0.00;0.00;;;17.20;99.90;;;;;;4979152;28;20042;-71
2023/06/27 05:32:56;;;;;;;0.00;0.00;;;17.20;99.90;;;;;;4960278;28;20038;-72
2023/06/27 05:35:42;;;;;;;0.20;0.13;;;17.20;99.90;;;;;;4964722;28;20053;-70
2023/06/27 05:38:08;;;;;;;0.10;0.07;;;17.30;99.90;;;;;;4951806;28;20046;-70
2023/06/27 05:40:34;;;;;;;0.30;0.10;;;17.30;99.90;;;;;;4961961;28;20373;-72
2023/06/27 05:43:00;;;;;;;0.10;0.10;;;17.30;99.90;;;;;;4975646;28;20043;-71
2023/06/27 05:45:25;;;;;;;0.00;0.00;;;17.40;99.90;;;;;;4964691;28;20038;-72
2023/06/27 05:48:16;;;;;;;0.08;0.08;;;17.50;99.90;;;;;;4972483;28;20410;-72
2023/06/27 05:50:42;;;;;;;0.00;0.00;;;17.60;99.90;;;;;;4954844;28;20200;-72
2023/06/27 05:53:08;;;;;;;0.17;0.00;;;17.70;99.90;;;;;;4977895;28;20502;-71
2023/06/27 05:55:33;;;;;;;0.00;0.00;;;17.80;99.90;;;;;;4983029;28;20060;-72
2023/06/27 05:57:59;;;;;;;0.08;0.08;;;17.80;99.90;;;;;;4985707;28;20045;-71
2023/06/27 06:00:25;;;;;;;0.20;0.10;;;18.00;99.90;;;;;;4965952;28;20117;-71
2023/06/27 06:02:51;;;;;;;0.00;0.00;;;18.10;99.90;;;;;;4968074;28;20112;-72
2023/06/27 06:05:17;;;;;;;0.00;0.00;;;18.10;99.90;;;;;;4962510;28;20069;-72
2023/06/27 06:07:44;;;;;;;0.00;0.00;;;18.20;99.90;;;;;;4964548;28;20121;-71
2023/06/27 06:10:11;;;;;;;0.00;0.00;;;18.30;99.90;;;;;;4979943;28;20043;-71
2023/06/27 06:12:37;;;;;;;0.00;0.00;;;18.40;99.90;;;;;;4951180;28;20039;-71
2023/06/27 06:15:04;;;;;;;0.10;0.05;;;18.50;99.90;;;;;;4969228;28;20129;-71
2023/06/27 06:17:29;;;;;;;0.05;0.00;;;18.60;99.90;;;;;;4978753;28;20495;-71
2023/06/27 06:19:55;;;;;;;0.20;0.00;;;18.70;99.90;;;;;;4948025;28;20096;-71
2023/06/27 06:22:21;;;;;;;0.00;0.00;;;18.80;99.90;;;;;;4966012;28;20053;-71
2023/06/27 06:24:47;;;;;;;0.00;0.00;;;19.00;99.90;;;;;;4950638;28;20128;-71
2023/06/27 06:27:13;;;;;;;0.00;0.00;;;19.10;99.90;;;;;;4963953;28;20575;-71
2023/06/27 06:29:39;;;;;;;0.00;0.00;;;19.20;99.90;;;;;;4964140;28;20121;-71
2023/06/27 06:32:05;;;;;;;0.10;0.10;;;19.30;99.90;;;;;;4976853;28;20042;-72
2023/06/27 06:34:31;;;;;;;0.10;0.00;;;19.30;99.90;;;;;;4984000;28;20039;-72
2023/06/27 06:36:57;;;;;;;0.00;0.00;;;19.30;99.90;;;;;;4985379;28;20149;-71
2023/06/27 06:39:23;;;;;;;0.00;0.00;;;19.40;99.90;;;;;;4966193;28;20058;-72
2023/06/27 06:41:48;;;;;;;0.00;0.00;;;19.50;99.90;;;;;;4959326;28;20094;-71
2023/06/27 06:44:14;;;;;;;0.00;0.00;;;19.70;99.90;;;;;;4969305;28;20055;-71
2023/06/27 06:46:41;;;;;;;0.00;0.00;;;19.70;99.90;;;;;;4961652;28;20043;-71
2023/06/27 06:49:08;;;;;;;0.93;0.32;;;19.90;99.90;;;;;;4966283;28;20153;-71
2023/06/27 06:51:34;;;;;;;0.00;0.00;;;20.10;99.90;;;;;;4964658;28;20038;-71
2023/06/27 06:53:59;;;;;;;0.20;0.10;;;20.20;99.90;;;;;;4987450;28;20049;-71
2023/06/27 06:56:25;;;;;;;0.00;0.00;;;20.40;99.90;;;;;;4981078;28;20521;-71
2023/06/27 06:58:51;;;;;;;0.15;0.15;;;20.50;99.90;;;;;;4968129;28;20047;-71
2023/06/27 07:01:18;;;;;;;0.00;0.00;;;20.70;99.90;;;;;;4967376;28;20070;-71
2023/06/27 07:03:43;;;;;;;0.00;0.00;;;20.80;99.90;;;;;;4969139;28;20455;-71
2023/06/27 07:06:09;;;;;;;0.00;0.00;;;20.90;99.90;;;;;;4990016;28;20070;-71
2023/06/27 07:08:35;;;;;;;0.00;0.00;;;20.80;99.90;;;;;;4961198;28;20042;-71
2023/06/27 07:11:02;;;;;;;0.00;0.00;;;20.90;99.90;;;;;;4963728;28;20105;-71
2023/06/27 07:13:28;;;;;;;0.00;0.00;;;20.80;99.90;;;;;;4985704;28;20039;-71
2023/06/27 07:15:54;;;;;;;0.13;0.10;;;20.80;99.90;;;;;;4982484;28;20073;-71
2023/06/27 07:18:20;;;;;;;0.00;0.00;;;20.90;99.90;;;;;;4978385;28;20138;-71
2023/06/27 07:20:45;;;;;;;0.00;0.00;;;21.00;99.90;;;;;;4983008;28;20084;-72
2023/06/27 07:23:11;;;;;;;0.10;0.00;;;21.00;99.90;;;;;;4965852;28;20483;-71
2023/06/27 07:25:38;;;;;;;0.00;0.00;;;21.00;99.90;;;;;;4980844;28;20043;-71
2023/06/27 07:28:05;;;;;;;0.00;0.00;;;21.00;99.90;;;;;;4956405;28;20143;-71
2023/06/27 07:30:31;;;;;;;0.00;0.00;;;21.00;98.60;;;;;;4969089;28;20039;-71
2023/06/27 07:32:59;;;;;;;0.22;0.10;;;21.00;99.20;;;;;;4964333;28;20404;-72
2023/06/27 07:35:25;;;;;;;0.00;0.00;;;21.00;97.80;;;;;;4965035;28;20207;-71
2023/06/27 07:37:51;;;;;;;0.00;0.00;;;21.00;97.60;;;;;;4976859;28;20130;-70
2023/06/27 07:40:16;;;;;;;0.00;0.00;;;21.10;98.10;;;;;;4963769;28;20077;-71
2023/06/27 07:42:42;;;;;;;0.00;0.00;;;21.10;99.20;;;;;;4963301;28;20090;-71
2023/06/27 07:45:10;;;;;;;0.00;0.00;;;21.10;98.20;;;;;;4962935;28;20630;-71
2023/06/27 07:47:35;;;;;;;0.57;0.10;;;21.10;96.30;;;;;;4955671;28;20090;-71
2023/06/27 07:50:01;;;;;;;0.00;0.00;;;21.10;95.30;;;;;;4954168;28;20073;-71
2023/06/27 07:52:27;;;;;;;0.00;0.00;;;21.10;96.50;;;;;;4964601;28;20039;-71
2023/06/27 07:54:52;;;;;;;0.00;0.00;;;21.10;96.20;;;;;;4968095;28;20050;-72
2023/06/27 07:57:18;;;;;;;0.25;0.22;;;21.10;96.10;;;;;;4961813;28;20656;-71
2023/06/27 07:59:44;;;;;;;0.15;0.15;;;21.20;95.30;;;;;;4962603;28;20051;-72
2023/06/27 08:02:10;;;;;;;0.00;0.00;;;21.20;91.10;;;;;;4962841;28;20047;-72
2023/06/27 08:04:35;;;;;;;0.00;0.00;;;21.20;93.20;;;;;;4959226;28;20043;-71
2023/06/27 08:07:01;;;;;;;0.10;0.10;;;21.10;89.60;;;;;;4962441;28;20387;-71
2023/06/27 08:09:27;;;;;;;0.13;0.10;;;21.10;90.90;;;;;;4964660;28;20031;-71
2023/06/27 08:11:54;;;;;;;0.63;0.22;;;21.10;91.70;;;;;;4965131;28;20035;-70
2023/06/27 08:14:19;;;;;;;0.00;0.00;;;21.20;91.70;;;;;;4956099;28;20050;-70
2023/06/27 08:16:45;;;;;;;0.00;0.00;;;21.20;92.40;;;;;;4979040;28;20035;-71
2023/06/27 08:19:11;;;;;;;0.00;0.00;;;21.30;91.10;;;;;;4962226;28;20503;-71
2023/06/27 08:21:36;;;;;;;1.38;0.30;;;21.40;91.60;;;;;;4960276;28;20113;-71
2023/06/27 08:24:03;;;;;;;0.00;0.00;;;21.60;91.80;;;;;;4955904;28;20487;-71
2023/06/27 08:26:29;;;;;;;0.00;0.00;;;21.60;90.70;;;;;;4962327;28;20122;-71
2023/06/27 08:28:55;;;;;;;0.00;0.00;;;21.70;91.20;;;;;;4961751;28;20133;-71
2023/06/27 08:31:21;;;;;;;0.43;0.30;;;21.90;90.40;;;;;;4960331;28;20117;-71
2023/06/27 08:33:47;;;;;;;0.00;0.00;;;22.10;91.40;;;;;;4960868;28;20093;-71
2023/06/27 08:36:13;;;;;;;0.00;0.00;;;22.40;91.00;;;;;;4958042;28;20448;-70
2023/06/27 08:38:39;;;;;;;0.38;0.25;;;22.40;81.10;;;;;;4982004;28;20042;-70
2023/06/27 08:41:04;;;;;;;0.45;0.15;;;22.50;80.50;;;;;;4956434;28;20101;-70
2023/06/27 08:43:30;;;;;;;0.00;0.00;;;22.60;80.70;;;;;;4962827;28;20070;-71
2023/06/27 08:45:57;;;;;;;0.00;0.00;;;22.60;74.20;;;;;;4956001;28;20039;-71
2023/06/27 08:48:24;;;;;;;0.00;0.00;;;22.70;75.70;;;;;;4967807;28;20047;-71
2023/06/27 08:50:55;;;;;;;0.00;0.00;;;22.80;77.40;;;;;;4958817;28;20061;-71
2023/06/27 08:53:27;;;;;;;0.00;0.00;;;23.00;77.60;;;;;;4966958;28;20472;-71
2023/06/27 08:56:09;;;;;;;0.00;0.00;;;23.00;78.10;;;;;;4957027;28;20424;-71
2023/06/27 08:58:55;;;;;;;0.00;0.00;;;23.00;74.40;;;;;;4979270;28;20054;-71
2023/06/27 09:01:25;;;;;;;0.35;0.10;;;23.00;79.20;;;;;;4971341;28;20053;-71
2023/06/27 09:03:52;;;;;;;0.00;0.00;;;23.10;80.00;;;;;;4965005;28;20077;-71
2023/06/27 09:06:17;;;;;;;0.40;0.10;;;23.20;78.90;;;;;;4963233;28;20038;-71
2023/06/27 09:08:43;;;;;;;0.00;0.00;;;23.30;80.40;;;;;;4963210;28;20415;-71
2023/06/27 09:11:09;;;;;;;0.88;0.10;;;23.30;77.70;;;;;;4955423;28;20035;-71
2023/06/27 09:13:39;;;;;;;0.00;0.00;;;23.10;72.40;;;;;;4959561;28;20043;-71
2023/06/27 09:16:06;;;;;;;0.00;0.00;;;23.00;77.60;;;;;;4962170;28;20042;-71
2023/06/27 09:18:34;;;;;;;0.38;0.20;;;23.00;76.30;;;;;;4961972;28;20127;-71
2023/06/27 09:21:00;;;;;;;0.00;0.00;;;23.00;80.60;;;;;;4956088;28;20040;-71
2023/06/27 09:23:28;;;;;;;0.00;0.00;;;23.00;78.60;;;;;;4965831;28;20586;-71
2023/06/27 09:26:11;;;;;;;2.55;2.45;;;23.10;79.40;;;;;;4962997;28;20167;-71
2023/06/27 09:28:47;;;;;;;0.00;0.00;;;23.00;79.90;;;;;;4966794;28;20062;-71
2023/06/27 09:31:13;;;;;;;0.00;0.00;;;23.10;80.00;;;;;;4954839;28;20106;-71
2023/06/27 09:33:41;;;;;;;0.60;0.10;;;23.20;80.80;;;;;;4942255;28;20053;-71
2023/06/27 09:36:07;;;;;;;0.00;0.00;;;23.40;78.90;;;;;;4963203;28;20053;-71
2023/06/27 09:38:33;;;;;;;0.00;0.00;;;23.60;78.50;;;;;;4957923;28;20050;-71
2023/06/27 09:41:06;;;;;;;0.00;0.00;;;23.60;77.00;;;;;;4966590;28;20371;-71
2023/06/27 09:43:37;;;;;;;0.00;0.00;;;23.50;76.80;;;;;;4958720;28;20119;-69
2023/06/27 09:46:05;;;;;;;0.00;0.00;;;23.60;74.00;;;;;;4963223;28;20047;-70
2023/06/27 09:48:31;;;;;;;0.00;0.00;;;23.50;73.70;;;;;;4956268;28;20376;-70
2023/06/27 09:51:01;;;;;;;0.00;0.00;;;23.30;74.50;;;;;;4959845;28;20106;-70
2023/06/27 09:53:31;;;;;;;0.00;0.00;;;23.20;76.30;;;;;;4957376;28;20046;-70
2023/06/27 09:56:00;;;;;;;0.00;0.00;;;23.20;75.70;;;;;;4962555;28;20407;-71
2023/06/27 09:58:30;;;;;;;0.00;0.00;;;23.40;77.60;;;;;;4963702;28;20042;-70
2023/06/27 10:01:04;;;;;;;0.00;0.00;;;23.50;78.60;;;;;;4959347;28;20047;-71
2023/06/27 10:03:30;;;;;;;20.42;0.40;;;23.60;77.60;;;;;;4969143;28;20704;-70
2023/06/27 10:05:56;;;;;;;0.15;0.00;;;23.70;75.30;;;;;;4950809;28;20045;-70
2023/06/27 10:08:22;;;;;;;0.10;0.10;;;23.80;75.50;;;;;;4971734;28;20410;-70
2023/06/27 10:10:49;;;;;;;0.10;0.00;;;23.80;76.00;;;;;;4965558;28;20046;-70
2023/06/27 10:13:15;;;;;;;0.00;0.00;;;23.90;78.20;;;;;;4965587;28;20047;-71
2023/06/27 10:15:41;;;;;;;0.00;0.00;;;23.90;73.40;;;;;;4966261;28;20046;-70
2023/06/27 10:18:07;;;;;;;0.00;0.00;;;23.90;73.30;;;;;;4957227;28;20121;-70
2023/06/27 10:20:32;;;;;;;0.13;0.13;;;23.90;73.20;;;;;;4962616;28;20562;-70
2023/06/27 10:22:59;;;;;;;0.00;0.00;;;23.70;76.10;;;;;;4965488;28;20042;-70
2023/06/27 10:25:26;;;;;;;0.00;0.00;;;23.70;75.10;;;;;;4959905;28;20051;-70
2023/06/27 10:28:07;;;;;;;0.17;0.17;;;23.90;77.00;;;;;;4965516;28;20500;-71
2023/06/27 10:30:37;;;;;;;0.00;0.00;;;23.90;75.20;;;;;;4961876;28;20047;-71
2023/06/27 10:33:18;;;;;;;0.00;0.00;;;23.60;74.00;;;;;;4969731;28;20438;-71
2023/06/27 10:35:56;;;;;;;0.00;0.00;;;23.60;73.70;;;;;;4965907;28;20071;-71
2023/06/27 10:38:22;;;;;;;0.00;0.00;;;23.70;75.60;;;;;;4960390;28;20155;-70
2023/06/27 10:41:02;;;;;;;0.10;0.00;;;23.80;71.70;;;;;;4963550;28;20454;-69
2023/06/27 10:43:39;;;;;;;0.00;0.00;;;23.70;75.50;;;;;;4966187;28;20114;-70
2023/06/27 10:46:06;;;;;;;3.10;0.28;;;23.50;69.70;;;;;;4963967;28;20471;-70
2023/06/27 10:48:53;;;;;;;0.00;0.00;;;23.40;74.40;;;;;;4972653;28;20459;-70
2023/06/27 10:51:21;;;;;;;0.00;0.00;;;23.60;73.00;;;;;;4962671;28;20394;-71
2023/06/27 10:54:08;;;;;;;0.65;0.10;;;23.90;74.90;;;;;;4956235;28;20054;-70
2023/06/27 10:56:35;;;;;;;0.32;0.17;;;24.40;74.40;;;;;;4958824;28;20050;-71
2023/06/27 10:59:03;;;;;;;0.00;0.00;;;24.40;69.80;;;;;;4965119;28;20039;-71
2023/06/27 11:01:36;;;;;;;0.85;0.10;;;24.20;68.90;;;;;;4965615;28;20089;-71
2023/06/27 11:04:25;;;;;;;0.08;0.08;;;23.90;70.40;;;;;;4968168;28;20050;-71
2023/06/27 11:06:59;;;;;;;0.10;0.00;;;23.90;69.30;;;;;;4968824;28;20043;-71
2023/06/27 11:09:25;;;;;;;0.00;0.00;;;23.60;70.70;;;;;;4967292;28;20268;-71
2023/06/27 11:11:55;;;;;;;0.00;0.00;;;23.40;71.50;;;;;;4963572;28;20393;-71
2023/06/27 11:14:41;;;;;;;0.00;0.00;;;23.40;70.80;;;;;;4960494;28;20133;-71
2023/06/27 11:17:07;;;;;;;0.00;0.00;;;23.50;70.00;;;;;;4964569;28;20047;-71
2023/06/27 11:19:36;;;;;;;0.00;0.00;;;23.70;69.30;;;;;;4946251;28;20448;-72
2023/06/27 11:22:02;;;;;;;0.00;0.00;;;23.60;67.70;;;;;;4961843;28;20051;-71
2023/06/27 11:24:32;;;;;;;0.00;0.00;;;23.40;69.20;;;;;;4956794;28;20050;-71
2023/06/27 11:26:58;;;;;;;0.00;0.00;;;23.40;71.90;;;;;;4959746;28;20046;-71
2023/06/27 11:29:26;;;;;;;0.32;0.20;;;23.50;72.70;;;;;;4982978;28;20098;-71
2023/06/27 11:31:55;;;;;;;0.00;0.00;;;23.50;71.20;;;;;;4981237;28;20057;-72
2023/06/27 11:34:22;;;;;;;0.00;0.00;;;23.20;72.80;;;;;;4984093;28;20042;-71
2023/06/27 11:36:48;;;;;;;0.00;0.00;;;22.90;73.90;;;;;;4980112;28;20137;-71
2023/06/27 11:39:14;;;;;;;0.00;0.00;;;22.70;74.80;;;;;;4987136;28;20031;-71
2023/06/27 11:41:44;;;;;;;0.00;0.00;;;22.60;77.40;;;;;;4984018;28;20046;-71
2023/06/27 11:44:14;;;;;;;0.00;0.00;;;22.60;76.70;;;;;;4966767;28;20034;-71
2023/06/27 11:46:51;;;;;;;0.10;0.10;;;22.70;78.10;;;;;;4969993;28;20557;-71
2023/06/27 11:49:24;;;;;;;0.22;0.08;;;22.80;80.60;;;;;;4970797;28;20042;-71
2023/06/27 11:51:51;;;;;;;0.00;0.00;;;23.10;80.60;;;;;;4959908;28;20430;-71
2023/06/27 11:54:18;;;;;;;0.00;0.00;;;23.50;76.40;;;;;;4962691;28;20044;-71
2023/06/27 11:56:44;;;;;;;0.00;0.00;;;23.80;72.40;;;;;;4962677;28;20047;-71
2023/06/27 11:59:10;;;;;;;0.00;0.00;;;24.00;72.30;;;;;;4986759;28;20498;-71
2023/06/27 12:01:44;;;;;;;0.00;0.00;;;24.10;69.90;;;;;;4985175;28;20050;-71
2023/06/27 12:04:17;;;;;;;0.00;0.00;;;24.20;69.80;;;;;;4975714;28;20530;-71
2023/06/27 12:06:44;;;;;;;0.00;0.00;;;24.50;69.50;;;;;;4981375;28;20108;-71
2023/06/27 12:09:22;;;;;;;0.47;0.10;;;24.80;71.80;;;;;;4966880;28;20101;-71
2023/06/27 12:11:52;;;;;;;0.00;0.00;;;25.00;67.90;;;;;;4973615;28;20150;-69
2023/06/27 12:14:22;;;;;;;0.00;0.00;;;25.00;71.20;;;;;;4977768;28;20042;-68
2023/06/27 12:16:48;;;;;;;0.00;0.00;;;24.90;67.10;;;;;;4981637;28;20068;-68
2023/06/27 12:19:14;;;;;;;0.00;0.00;;;24.80;68.30;;;;;;4985984;28;20034;-68
2023/06/27 12:21:39;;;;;;;0.10;0.00;;;24.90;67.70;;;;;;4974975;28;20045;-68
2023/06/27 12:24:07;;;;;;;0.00;0.00;;;24.90;69.50;;;;;;4947115;28;20049;-68
2023/06/27 12:26:33;;;;;;;1.00;0.15;;;24.90;60.40;;;;;;4965108;28;20378;-68
2023/06/27 12:29:00;;;;;;;0.57;0.20;;;24.90;61.90;;;;;;4962005;28;20054;-69
2023/06/27 12:31:27;;;;;;;0.00;0.00;;;25.10;64.40;;;;;;4983008;28;20336;-68
2023/06/27 12:33:53;;;;;;;0.00;0.00;;;25.10;62.00;;;;;;4979374;28;20039;-68
2023/06/27 12:36:21;;;;;;;0.00;0.00;;;25.20;65.30;;;;;;4965115;28;20043;-68
2023/06/27 12:38:48;;;;;;;0.00;0.00;;;25.50;66.30;;;;;;4980979;28;20061;-67
2023/06/27 12:41:16;;;;;;;0.00;0.00;;;25.60;61.30;;;;;;4958895;28;20055;-68
2023/06/27 12:43:42;;;;;;;0.00;0.00;;;25.50;60.60;;;;;;4986846;28;20050;-69
2023/06/27 12:46:08;;;;;;;0.00;0.00;;;25.30;61.80;;;;;;4983438;28;20484;-68
2023/06/27 12:48:34;;;;;;;0.00;0.00;;;25.10;63.60;;;;;;4984511;28;20126;-68
2023/06/27 12:51:00;;;;;;;0.00;0.00;;;25.00;64.70;;;;;;4952182;28;20058;-68